sensor_id;sensor_type;location;lat;lon;timestamp;temperature;humidity
73780;SHT30;62093;37.614;15.072;2024-03-23T00:54:55;16.32;61.95
73780;SHT30;62093;37.614;15.072;2024-03-23T00:57:21;16.30;61.88
73780;SHT30;62093;37.614;15.072;2024-03-23T00:59:46;16.29;61.58
73780;SHT30;62093;37.614;15.072;2024-03-23T01:02:12;16.28;62.08
73780;SHT30;62093;37.614;15.072;2024-03-23T01:04:38;16.26;61.82
73780;SHT30;62093;37.614;15.072;2024-03-23T01:07:04;16.25;61.98
73780;SHT30;62093;37.614;15.072;2024-03-23T01:09:30;16.28;61.92
73780;SHT30;62093;37.614;15.072;2024-03-23T01:11:56;16.23;61.88
73780;SHT30;62093;37.614;15.072;2024-03-23T01:14:22;16.28;61.99
73780;SHT30;62093;37.614;15.072;2024-03-23T01:16:48;16.29;61.73
73780;SHT30;62093;37.614;15.072;2024-03-23T01:19:14;16.25;61.80
73780;SHT30;62093;37.614;15.072;2024-03-23T01:21:39;16.23;61.64
73780;SHT30;62093;37.614;15.072;2024-03-23T01:24:05;16.25;62.18
73780;SHT30;62093;37.614;15.072;2024-03-23T01:26:32;16.23;61.60
73780;SHT30;62093;37.614;15.072;2024-03-23T01:28:58;16.25;61.93
73780;SHT30;62093;37.614;15.072;2024-03-23T01:31:24;16.19;61.63
73780;SHT30;62093;37.614;15.072;2024-03-23T01:33:49;16.21;61.74
73780;SHT30;62093;37.614;15.072;2024-03-23T01:36:15;16.25;61.64
73780;SHT30;62093;37.614;15.072;2024-03-23T01:38:41;16.23;61.55
73780;SHT30;62093;37.614;15.072;2024-03-23T01:41:07;16.28;61.59
73780;SHT30;62093;37.614;15.072;2024-03-23T01:43:33;16.25;61.79
73780;SHT30;62093;37.614;15.072;2024-03-23T01:45:58;16.23;61.47
73780;SHT30;62093;37.614;15.072;2024-03-23T01:48:24;16.22;61.78
73780;SHT30;62093;37.614;15.072;2024-03-23T01:50:50;16.23;61.56
73780;SHT30;62093;37.614;15.072;2024-03-23T01:53:16;16.23;61.67
73780;SHT30;62093;37.614;15.072;2024-03-23T01:55:47;16.25;61.92
73780;SHT30;62093;37.614;15.072;2024-03-23T01:58:13;16.23;61.73
73780;SHT30;62093;37.614;15.072;2024-03-23T02:00:39;16.23;61.98
73780;SHT30;62093;37.614;15.072;2024-03-23T02:03:25;16.28;62.02
73780;SHT30;62093;37.614;15.072;2024-03-23T02:05:52;16.28;61.87
73780;SHT30;62093;37.614;15.072;2024-03-23T02:08:20;16.23;61.70
73780;SHT30;62093;37.614;15.072;2024-03-23T02:10:46;16.22;61.75
73780;SHT30;62093;37.614;15.072;2024-03-23T02:13:14;16.25;61.89
73780;SHT30;62093;37.614;15.072;2024-03-23T02:15:39;16.23;62.25
73780;SHT30;62093;37.614;15.072;2024-03-23T02:18:07;16.22;61.61
73780;SHT30;62093;37.614;15.072;2024-03-23T02:20:33;16.22;61.27
73780;SHT30;62093;37.614;15.072;2024-03-23T02:22:59;16.23;61.51
73780;SHT30;62093;37.614;15.072;2024-03-23T02:25:25;16.26;61.74
73780;SHT30;62093;37.614;15.072;2024-03-23T02:27:51;16.21;61.65
73780;SHT30;62093;37.614;15.072;2024-03-23T02:30:18;16.21;61.54
73780;SHT30;62093;37.614;15.072;2024-03-23T02:32:44;16.19;61.85
73780;SHT30;62093;37.614;15.072;2024-03-23T02:35:10;16.18;61.44
73780;SHT30;62093;37.614;15.072;2024-03-23T02:37:36;16.18;62.03
73780;SHT30;62093;37.614;15.072;2024-03-23T02:40:02;16.16;61.59
73780;SHT30;62093;37.614;15.072;2024-03-23T02:42:28;16.16;61.98
73780;SHT30;62093;37.614;15.072;2024-03-23T02:44:54;16.19;61.64
73780;SHT30;62093;37.614;15.072;2024-03-23T02:47:20;16.15;61.79
73780;SHT30;62093;37.614;15.072;2024-03-23T02:49:46;16.16;62.12
73780;SHT30;62093;37.614;15.072;2024-03-23T02:52:12;16.12;61.79
73780;SHT30;62093;37.614;15.072;2024-03-23T02:54:37;16.13;62.16
73780;SHT30;62093;37.614;15.072;2024-03-23T02:57:03;16.06;61.71
73780;SHT30;62093;37.614;15.072;2024-03-23T02:59:30;16.08;62.39
73780;SHT30;62093;37.614;15.072;2024-03-23T03:01:56;16.08;62.65
73780;SHT30;62093;37.614;15.072;2024-03-23T03:04:22;16.09;62.19
73780;SHT30;62093;37.614;15.072;2024-03-23T03:06:48;16.06;62.63
73780;SHT30;62093;37.614;15.072;2024-03-23T03:09:14;16.09;62.36
73780;SHT30;62093;37.614;15.072;2024-03-23T03:11:41;16.08;62.22
73780;SHT30;62093;37.614;15.072;2024-03-23T03:14:07;16.08;62.41
73780;SHT30;62093;37.614;15.072;2024-03-23T03:16:33;16.09;62.65
73780;SHT30;62093;37.614;15.072;2024-03-23T03:18:59;16.09;62.35
73780;SHT30;62093;37.614;15.072;2024-03-23T03:21:25;16.08;61.92
73780;SHT30;62093;37.614;15.072;2024-03-23T03:23:51;16.08;62.41
73780;SHT30;62093;37.614;15.072;2024-03-23T03:26:17;16.09;62.56
73780;SHT30;62093;37.614;15.072;2024-03-23T03:28:43;16.09;62.29
73780;SHT30;62093;37.614;15.072;2024-03-23T03:31:20;16.08;62.50
73780;SHT30;62093;37.614;15.072;2024-03-23T03:33:46;16.06;62.69
73780;SHT30;62093;37.614;15.072;2024-03-23T03:36:12;16.08;62.79
73780;SHT30;62093;37.614;15.072;2024-03-23T03:38:38;16.08;62.57
73780;SHT30;62093;37.614;15.072;2024-03-23T03:41:04;16.12;62.67
73780;SHT30;62093;37.614;15.072;2024-03-23T03:43:32;16.05;62.43
73780;SHT30;62093;37.614;15.072;2024-03-23T03:45:59;16.11;62.31
73780;SHT30;62093;37.614;15.072;2024-03-23T03:48:25;16.05;62.53
73780;SHT30;62093;37.614;15.072;2024-03-23T03:50:52;16.05;62.55
73780;SHT30;62093;37.614;15.072;2024-03-23T03:53:19;16.09;62.45
73780;SHT30;62093;37.614;15.072;2024-03-23T03:55:45;16.06;62.30
73780;SHT30;62093;37.614;15.072;2024-03-23T03:58:11;16.06;62.12
73780;SHT30;62093;37.614;15.072;2024-03-23T04:00:37;16.08;62.44
73780;SHT30;62093;37.614;15.072;2024-03-23T04:03:04;16.06;62.31
73780;SHT30;62093;37.614;15.072;2024-03-23T04:05:29;16.02;61.95
73780;SHT30;62093;37.614;15.072;2024-03-23T04:07:56;16.02;62.12
73780;SHT30;62093;37.614;15.072;2024-03-23T04:10:22;16.04;62.11
73780;SHT30;62093;37.614;15.072;2024-03-23T04:12:48;16.04;62.38
73780;SHT30;62093;37.614;15.072;2024-03-23T04:15:14;16.05;62.06
73780;SHT30;62093;37.614;15.072;2024-03-23T04:17:40;16.05;62.19
73780;SHT30;62093;37.614;15.072;2024-03-23T04:20:08;16.04;62.46
73780;SHT30;62093;37.614;15.072;2024-03-23T04:22:37;16.04;62.31
73780;SHT30;62093;37.614;15.072;2024-03-23T04:25:03;15.98;62.08
73780;SHT30;62093;37.614;15.072;2024-03-23T04:27:38;16.00;61.90
73780;SHT30;62093;37.614;15.072;2024-03-23T04:30:04;16.01;62.19
73780;SHT30;62093;37.614;15.072;2024-03-23T04:32:36;16.01;61.79
73780;SHT30;62093;37.614;15.072;2024-03-23T04:35:02;15.98;62.13
73780;SHT30;62093;37.614;15.072;2024-03-23T04:37:38;16.00;62.02
73780;SHT30;62093;37.614;15.072;2024-03-23T04:40:07;16.00;62.36
73780;SHT30;62093;37.614;15.072;2024-03-23T04:42:33;16.01;62.07
73780;SHT30;62093;37.614;15.072;2024-03-23T04:45:00;16.00;62.32
73780;SHT30;62093;37.614;15.072;2024-03-23T04:47:26;15.98;61.92
73780;SHT30;62093;37.614;15.072;2024-03-23T04:49:52;16.00;62.10
73780;SHT30;62093;37.614;15.072;2024-03-23T04:52:18;16.00;62.06
73780;SHT30;62093;37.614;15.072;2024-03-23T04:54:44;16.02;62.22
73780;SHT30;62093;37.614;15.072;2024-03-23T04:57:11;15.97;62.39
73780;SHT30;62093;37.614;15.072;2024-03-23T04:59:37;15.98;61.82
73780;SHT30;62093;37.614;15.072;2024-03-23T05:02:03;16.00;62.07
73780;SHT30;62093;37.614;15.072;2024-03-23T05:04:29;16.00;61.90
73780;SHT30;62093;37.614;15.072;2024-03-23T05:06:55;15.95;61.49
73780;SHT30;62093;37.614;15.072;2024-03-23T05:09:21;15.97;61.88
73780;SHT30;62093;37.614;15.072;2024-03-23T05:11:47;15.98;61.88
73780;SHT30;62093;37.614;15.072;2024-03-23T05:14:13;15.94;61.91
73780;SHT30;62093;37.614;15.072;2024-03-23T05:16:40;15.97;62.22
73780;SHT30;62093;37.614;15.072;2024-03-23T05:19:06;15.98;62.10
73780;SHT30;62093;37.614;15.072;2024-03-23T05:21:32;15.98;62.30
73780;SHT30;62093;37.614;15.072;2024-03-23T05:23:58;16.00;61.72
73780;SHT30;62093;37.614;15.072;2024-03-23T05:26:24;16.01;62.02
73780;SHT30;62093;37.614;15.072;2024-03-23T05:28:49;16.00;61.73
73780;SHT30;62093;37.614;15.072;2024-03-23T05:31:28;15.98;61.67
73780;SHT30;62093;37.614;15.072;2024-03-23T05:33:54;16.01;61.88
73780;SHT30;62093;37.614;15.072;2024-03-23T05:36:20;16.01;62.20
73780;SHT30;62093;37.614;15.072;2024-03-23T05:38:46;16.01;62.19
73780;SHT30;62093;37.614;15.072;2024-03-23T05:41:12;16.04;61.93
73780;SHT30;62093;37.614;15.072;2024-03-23T05:43:38;16.06;62.03
73780;SHT30;62093;37.614;15.072;2024-03-23T05:46:04;16.05;62.01
73780;SHT30;62093;37.614;15.072;2024-03-23T05:48:36;16.04;62.01
73780;SHT30;62093;37.614;15.072;2024-03-23T05:51:02;16.06;62.17
73780;SHT30;62093;37.614;15.072;2024-03-23T05:53:28;16.08;62.17
73780;SHT30;62093;37.614;15.072;2024-03-23T05:56:03;16.08;61.94
73780;SHT30;62093;37.614;15.072;2024-03-23T05:58:32;16.08;61.99
73780;SHT30;62093;37.614;15.072;2024-03-23T06:01:02;16.09;62.38
73780;SHT30;62093;37.614;15.072;2024-03-23T06:03:28;16.09;62.11
73780;SHT30;62093;37.614;15.072;2024-03-23T06:05:55;16.12;62.41
73780;SHT30;62093;37.614;15.072;2024-03-23T06:08:21;16.09;62.30
73780;SHT30;62093;37.614;15.072;2024-03-23T06:10:47;16.13;62.22
73780;SHT30;62093;37.614;15.072;2024-03-23T06:13:13;16.15;62.17
73780;SHT30;62093;37.614;15.072;2024-03-23T06:15:40;16.16;62.15
73780;SHT30;62093;37.614;15.072;2024-03-23T06:18:06;16.16;62.15
73780;SHT30;62093;37.614;15.072;2024-03-23T06:20:34;16.18;62.35
73780;SHT30;62093;37.614;15.072;2024-03-23T06:23:00;16.21;62.18
73780;SHT30;62093;37.614;15.072;2024-03-23T06:25:27;16.21;61.95
73780;SHT30;62093;37.614;15.072;2024-03-23T06:27:53;16.21;62.13
73780;SHT30;62093;37.614;15.072;2024-03-23T06:30:19;16.18;62.19
73780;SHT30;62093;37.614;15.072;2024-03-23T06:32:44;16.23;62.15
73780;SHT30;62093;37.614;15.072;2024-03-23T06:35:10;16.23;62.24
73780;SHT30;62093;37.614;15.072;2024-03-23T06:37:36;16.23;61.94
73780;SHT30;62093;37.614;15.072;2024-03-23T06:40:02;16.25;62.25
73780;SHT30;62093;37.614;15.072;2024-03-23T06:42:31;16.23;62.08
73780;SHT30;62093;37.614;15.072;2024-03-23T06:44:57;16.23;62.01
73780;SHT30;62093;37.614;15.072;2024-03-23T06:47:23;16.29;62.07
73780;SHT30;62093;37.614;15.072;2024-03-23T06:49:50;16.28;62.01
73780;SHT30;62093;37.614;15.072;2024-03-23T06:52:16;16.28;62.01
73780;SHT30;62093;37.614;15.072;2024-03-23T06:54:43;16.28;61.94
73780;SHT30;62093;37.614;15.072;2024-03-23T06:57:11;16.32;61.91
73780;SHT30;62093;37.614;15.072;2024-03-23T06:59:38;16.28;61.94
73780;SHT30;62093;37.614;15.072;2024-03-23T07:02:05;16.30;61.85
73780;SHT30;62093;37.614;15.072;2024-03-23T07:04:31;16.29;61.73
73780;SHT30;62093;37.614;15.072;2024-03-23T07:06:57;16.33;61.62
73780;SHT30;62093;37.614;15.072;2024-03-23T07:09:23;16.28;61.68
73780;SHT30;62093;37.614;15.072;2024-03-23T07:11:54;16.35;61.90
73780;SHT30;62093;37.614;15.072;2024-03-23T07:14:21;16.33;61.65
73780;SHT30;62093;37.614;15.072;2024-03-23T07:16:47;16.36;61.84
73780;SHT30;62093;37.614;15.072;2024-03-23T07:19:15;16.38;61.88
73780;SHT30;62093;37.614;15.072;2024-03-23T07:21:42;16.38;61.84
73780;SHT30;62093;37.614;15.072;2024-03-23T07:24:09;16.39;61.43
73780;SHT30;62093;37.614;15.072;2024-03-23T07:26:35;16.41;61.67
73780;SHT30;62093;37.614;15.072;2024-03-23T07:29:01;16.36;61.69
73780;SHT30;62093;37.614;15.072;2024-03-23T07:31:27;16.41;61.73
73780;SHT30;62093;37.614;15.072;2024-03-23T07:33:54;16.39;61.48
73780;SHT30;62093;37.614;15.072;2024-03-23T07:36:19;16.45;61.57
73780;SHT30;62093;37.614;15.072;2024-03-23T07:38:45;16.46;61.52
73780;SHT30;62093;37.614;15.072;2024-03-23T07:41:15;16.46;61.69
73780;SHT30;62093;37.614;15.072;2024-03-23T07:43:45;16.45;61.79
73780;SHT30;62093;37.614;15.072;2024-03-23T07:46:11;16.48;61.67
73780;SHT30;62093;37.614;15.072;2024-03-23T07:48:38;16.43;61.48
73780;SHT30;62093;37.614;15.072;2024-03-23T07:51:07;16.45;61.74
73780;SHT30;62093;37.614;15.072;2024-03-23T07:53:35;16.46;61.58
73780;SHT30;62093;37.614;15.072;2024-03-23T07:56:03;16.45;61.56
73780;SHT30;62093;37.614;15.072;2024-03-23T07:58:29;16.49;61.60
73780;SHT30;62093;37.614;15.072;2024-03-23T08:00:56;16.49;61.49
73780;SHT30;62093;37.614;15.072;2024-03-23T08:03:22;16.49;61.65
73780;SHT30;62093;37.614;15.072;2024-03-23T08:05:48;16.49;61.58
73780;SHT30;62093;37.614;15.072;2024-03-23T08:08:14;16.51;61.53
73780;SHT30;62093;37.614;15.072;2024-03-23T08:10:50;16.53;61.50
73780;SHT30;62093;37.614;15.072;2024-03-23T08:13:16;16.53;61.55
73780;SHT30;62093;37.614;15.072;2024-03-23T08:15:42;16.55;61.58
73780;SHT30;62093;37.614;15.072;2024-03-23T08:18:08;16.53;61.36
73780;SHT30;62093;37.614;15.072;2024-03-23T08:20:34;16.56;61.52
73780;SHT30;62093;37.614;15.072;2024-03-23T08:23:00;16.56;61.44
73780;SHT30;62093;37.614;15.072;2024-03-23T08:25:26;16.56;61.47
73780;SHT30;62093;37.614;15.072;2024-03-23T08:27:52;16.56;61.50
73780;SHT30;62093;37.614;15.072;2024-03-23T08:30:18;16.57;61.45
73780;SHT30;62093;37.614;15.072;2024-03-23T08:32:44;16.59;61.44
73780;SHT30;62093;37.614;15.072;2024-03-23T08:35:10;16.60;61.39
73780;SHT30;62093;37.614;15.072;2024-03-23T08:37:35;16.57;61.30
73780;SHT30;62093;37.614;15.072;2024-03-23T08:40:01;16.59;61.32
73780;SHT30;62093;37.614;15.072;2024-03-23T08:42:30;16.60;61.39
73780;SHT30;62093;37.614;15.072;2024-03-23T08:44:56;16.63;61.30
73780;SHT30;62093;37.614;15.072;2024-03-23T08:47:21;16.66;61.21
73780;SHT30;62093;37.614;15.072;2024-03-23T08:49:47;16.66;61.10
73780;SHT30;62093;37.614;15.072;2024-03-23T08:52:13;16.72;61.18
73780;SHT30;62093;37.614;15.072;2024-03-23T08:54:39;16.70;61.07
73780;SHT30;62093;37.614;15.072;2024-03-23T08:57:05;16.74;61.09
73780;SHT30;62093;37.614;15.072;2024-03-23T08:59:30;16.72;61.09
73780;SHT30;62093;37.614;15.072;2024-03-23T09:01:56;16.77;61.00
73780;SHT30;62093;37.614;15.072;2024-03-23T09:04:22;16.76;60.99
73780;SHT30;62093;37.614;15.072;2024-03-23T09:06:48;16.79;61.01
73780;SHT30;62093;37.614;15.072;2024-03-23T09:09:14;16.79;60.84
73780;SHT30;62093;37.614;15.072;2024-03-23T09:11:40;16.81;60.97
73780;SHT30;62093;37.614;15.072;2024-03-23T09:14:06;16.81;60.63
73780;SHT30;62093;37.614;15.072;2024-03-23T09:16:31;16.85;60.80
73780;SHT30;62093;37.614;15.072;2024-03-23T09:18:57;16.83;60.85
73780;SHT30;62093;37.614;15.072;2024-03-23T09:21:23;16.83;60.80
73780;SHT30;62093;37.614;15.072;2024-03-23T09:23:49;16.84;60.73
73780;SHT30;62093;37.614;15.072;2024-03-23T09:26:15;16.81;60.79
73780;SHT30;62093;37.614;15.072;2024-03-23T09:28:41;16.84;60.74
73780;SHT30;62093;37.614;15.072;2024-03-23T09:31:08;16.84;60.74
73780;SHT30;62093;37.614;15.072;2024-03-23T09:33:35;16.85;60.67
73780;SHT30;62093;37.614;15.072;2024-03-23T09:36:04;16.85;60.67
73780;SHT30;62093;37.614;15.072;2024-03-23T09:38:30;16.85;60.68
73780;SHT30;62093;37.614;15.072;2024-03-23T09:40:57;16.85;60.76
73780;SHT30;62093;37.614;15.072;2024-03-23T09:43:23;16.85;60.74
73780;SHT30;62093;37.614;15.072;2024-03-23T09:45:49;16.85;60.65
73780;SHT30;62093;37.614;15.072;2024-03-23T09:48:16;16.84;60.82
73780;SHT30;62093;37.614;15.072;2024-03-23T09:50:43;16.87;60.69
73780;SHT30;62093;37.614;15.072;2024-03-23T09:53:13;16.90;60.67
73780;SHT30;62093;37.614;15.072;2024-03-23T09:55:40;16.85;60.64
73780;SHT30;62093;37.614;15.072;2024-03-23T09:58:06;16.90;60.76
73780;SHT30;62093;37.614;15.072;2024-03-23T10:00:33;16.87;60.80
73780;SHT30;62093;37.614;15.072;2024-03-23T10:02:59;16.87;60.64
73780;SHT30;62093;37.614;15.072;2024-03-23T10:05:29;16.85;60.71
73780;SHT30;62093;37.614;15.072;2024-03-23T10:07:57;16.87;60.60
73780;SHT30;62093;37.614;15.072;2024-03-23T10:10:25;16.90;60.74
73780;SHT30;62093;37.614;15.072;2024-03-23T10:12:50;16.85;60.62
73780;SHT30;62093;37.614;15.072;2024-03-23T10:15:21;16.87;60.67
73780;SHT30;62093;37.614;15.072;2024-03-23T10:17:48;16.90;60.67
73780;SHT30;62093;37.614;15.072;2024-03-23T10:20:22;16.90;60.67
73780;SHT30;62093;37.614;15.072;2024-03-23T10:22:49;16.90;60.72
73780;SHT30;62093;37.614;15.072;2024-03-23T10:25:15;16.90;60.67
73780;SHT30;62093;37.614;15.072;2024-03-23T10:27:42;16.88;60.72
73780;SHT30;62093;37.614;15.072;2024-03-23T10:30:13;16.88;60.77
73780;SHT30;62093;37.614;15.072;2024-03-23T10:32:42;16.90;60.72
73780;SHT30;62093;37.614;15.072;2024-03-23T10:35:19;16.88;60.74
73780;SHT30;62093;37.614;15.072;2024-03-23T10:37:48;16.88;60.70
73780;SHT30;62093;37.614;15.072;2024-03-23T10:40:17;16.91;60.62
73780;SHT30;62093;37.614;15.072;2024-03-23T10:42:44;16.93;60.53
73780;SHT30;62093;37.614;15.072;2024-03-23T10:45:11;16.93;60.56
73780;SHT30;62093;37.614;15.072;2024-03-23T10:47:37;16.91;60.48
73780;SHT30;62093;37.614;15.072;2024-03-23T10:50:04;16.91;60.50
73780;SHT30;62093;37.614;15.072;2024-03-23T10:52:33;16.97;60.53
73780;SHT30;62093;37.614;15.072;2024-03-23T10:55:03;16.95;60.44
73780;SHT30;62093;37.614;15.072;2024-03-23T10:57:51;16.95;60.40
73780;SHT30;62093;37.614;15.072;2024-03-23T11:00:18;17.07;60.29
73780;SHT30;62093;37.614;15.072;2024-03-23T11:02:44;17.11;60.20
73780;SHT30;62093;37.614;15.072;2024-03-23T11:05:30;17.18;60.05
73780;SHT30;62093;37.614;15.072;2024-03-23T11:07:57;17.41;59.49
73780;SHT30;62093;37.614;15.072;2024-03-23T11:10:27;17.44;59.46
73780;SHT30;62093;37.614;15.072;2024-03-23T11:12:58;17.52;59.34
73780;SHT30;62093;37.614;15.072;2024-03-23T11:15:41;17.58;59.15
73780;SHT30;62093;37.614;15.072;2024-03-23T11:18:07;17.65;59.03
73780;SHT30;62093;37.614;15.072;2024-03-23T11:20:35;17.76;58.84
73780;SHT30;62093;37.614;15.072;2024-03-23T11:23:02;17.78;58.83
73780;SHT30;62093;37.614;15.072;2024-03-23T11:25:30;17.89;58.67
73780;SHT30;62093;37.614;15.072;2024-03-23T11:28:11;17.99;58.50
73780;SHT30;62093;37.614;15.072;2024-03-23T11:30:38;18.02;58.42
73780;SHT30;62093;37.614;15.072;2024-03-23T11:33:04;18.12;58.37
73780;SHT30;62093;37.614;15.072;2024-03-23T11:38:05;18.24;58.06
73780;SHT30;62093;37.614;15.072;2024-03-23T11:40:32;18.27;58.02
73780;SHT30;62093;37.614;15.072;2024-03-23T11:43:00;18.36;57.93
73780;SHT30;62093;37.614;15.072;2024-03-23T11:45:27;18.36;57.84
73780;SHT30;62093;37.614;15.072;2024-03-23T11:48:14;18.41;57.74
73780;SHT30;62093;37.614;15.072;2024-03-23T11:50:45;18.41;57.81
73780;SHT30;62093;37.614;15.072;2024-03-23T11:53:15;18.44;57.73
73780;SHT30;62093;37.614;15.072;2024-03-23T11:55:55;18.40;57.83
73780;SHT30;62093;37.614;15.072;2024-03-23T11:58:23;18.38;57.96
73780;SHT30;62093;37.614;15.072;2024-03-23T12:00:57;18.38;57.95
73780;SHT30;62093;37.614;15.072;2024-03-23T12:03:23;18.38;57.96
73780;SHT30;62093;37.614;15.072;2024-03-23T12:05:56;18.36;58.07
73780;SHT30;62093;37.614;15.072;2024-03-23T12:08:25;18.34;58.01
73780;SHT30;62093;37.614;15.072;2024-03-23T12:11:13;18.37;58.02
73780;SHT30;62093;37.614;15.072;2024-03-23T12:13:42;18.33;58.13
73780;SHT30;62093;37.614;15.072;2024-03-23T12:16:24;18.32;58.13
73780;SHT30;62093;37.614;15.072;2024-03-23T12:18:52;18.30;58.17
73780;SHT30;62093;37.614;15.072;2024-03-23T12:21:18;18.30;58.23
73780;SHT30;62093;37.614;15.072;2024-03-23T12:23:44;18.26;58.23
73780;SHT30;62093;37.614;15.072;2024-03-23T12:26:12;18.27;58.22
73780;SHT30;62093;37.614;15.072;2024-03-23T12:28:38;18.26;58.27
73780;SHT30;62093;37.614;15.072;2024-03-23T12:31:05;18.27;58.34
73780;SHT30;62093;37.614;15.072;2024-03-23T12:33:34;18.29;58.21
73780;SHT30;62093;37.614;15.072;2024-03-23T12:36:00;18.29;58.30
73780;SHT30;62093;37.614;15.072;2024-03-23T12:38:26;18.33;58.27
73780;SHT30;62093;37.614;15.072;2024-03-23T12:40:52;18.36;58.28
73780;SHT30;62093;37.614;15.072;2024-03-23T12:43:18;18.34;58.20
73780;SHT30;62093;37.614;15.072;2024-03-23T12:45:47;18.45;58.08
73780;SHT30;62093;37.614;15.072;2024-03-23T12:48:14;18.54;57.91
73780;SHT30;62093;37.614;15.072;2024-03-23T12:50:40;18.60;57.77
73780;SHT30;62093;37.614;15.072;2024-03-23T12:53:05;18.68;57.47
73780;SHT30;62093;37.614;15.072;2024-03-23T12:55:31;18.72;57.48
73780;SHT30;62093;37.614;15.072;2024-03-23T12:57:57;18.74;57.47
73780;SHT30;62093;37.614;15.072;2024-03-23T13:00:24;18.72;57.44
73780;SHT30;62093;37.614;15.072;2024-03-23T13:02:51;18.74;57.40
73780;SHT30;62093;37.614;15.072;2024-03-23T13:05:17;18.76;57.44
73780;SHT30;62093;37.614;15.072;2024-03-23T13:07:44;18.75;57.36
73780;SHT30;62093;37.614;15.072;2024-03-23T13:10:10;18.74;57.37
73780;SHT30;62093;37.614;15.072;2024-03-23T13:12:37;18.76;57.36
73780;SHT30;62093;37.614;15.072;2024-03-23T13:15:03;18.76;57.29
73780;SHT30;62093;37.614;15.072;2024-03-23T13:17:31;18.76;57.44
73780;SHT30;62093;37.614;15.072;2024-03-23T13:19:57;18.74;57.45
73780;SHT30;62093;37.614;15.072;2024-03-23T13:22:23;18.72;57.52
73780;SHT30;62093;37.614;15.072;2024-03-23T13:24:49;18.72;57.46
73780;SHT30;62093;37.614;15.072;2024-03-23T13:27:16;18.71;57.59
73780;SHT30;62093;37.614;15.072;2024-03-23T13:29:44;18.71;57.53
73780;SHT30;62093;37.614;15.072;2024-03-23T13:32:12;18.71;57.60
73780;SHT30;62093;37.614;15.072;2024-03-23T13:34:39;18.67;57.63
73780;SHT30;62093;37.614;15.072;2024-03-23T13:37:06;18.67;57.59
73780;SHT30;62093;37.614;15.072;2024-03-23T13:39:33;18.67;57.68
73780;SHT30;62093;37.614;15.072;2024-03-23T13:41:59;18.65;57.65
73780;SHT30;62093;37.614;15.072;2024-03-23T13:44:25;18.65;57.68
73780;SHT30;62093;37.614;15.072;2024-03-23T13:46:52;18.63;57.72
73780;SHT30;62093;37.614;15.072;2024-03-23T13:49:27;18.63;57.79
73780;SHT30;62093;37.614;15.072;2024-03-23T13:51:55;18.61;57.70
73780;SHT30;62093;37.614;15.072;2024-03-23T13:54:21;18.63;57.71
73780;SHT30;62093;37.614;15.072;2024-03-23T13:56:49;18.65;57.72
73780;SHT30;62093;37.614;15.072;2024-03-23T13:59:15;18.64;57.72
73780;SHT30;62093;37.614;15.072;2024-03-23T14:01:41;18.61;57.80
73780;SHT30;62093;37.614;15.072;2024-03-23T14:04:07;18.60;57.85
73780;SHT30;62093;37.614;15.072;2024-03-23T14:06:33;18.60;57.71
73780;SHT30;62093;37.614;15.072;2024-03-23T14:08:59;18.57;57.74
73780;SHT30;62093;37.614;15.072;2024-03-23T14:11:25;18.60;57.80
73780;SHT30;62093;37.614;15.072;2024-03-23T14:13:52;18.57;57.95
73780;SHT30;62093;37.614;15.072;2024-03-23T14:16:19;18.54;57.91
73780;SHT30;62093;37.614;15.072;2024-03-23T14:18:47;18.54;57.97
73780;SHT30;62093;37.614;15.072;2024-03-23T14:21:13;18.55;57.88
73780;SHT30;62093;37.614;15.072;2024-03-23T14:23:39;18.54;57.89
73780;SHT30;62093;37.614;15.072;2024-03-23T14:26:06;18.54;57.82
73780;SHT30;62093;37.614;15.072;2024-03-23T14:28:34;18.53;57.82
73780;SHT30;62093;37.614;15.072;2024-03-23T14:31:01;18.55;57.96
73780;SHT30;62093;37.614;15.072;2024-03-23T14:33:27;18.53;57.87
73780;SHT30;62093;37.614;15.072;2024-03-23T14:35:54;18.53;57.89
73780;SHT30;62093;37.614;15.072;2024-03-23T14:38:21;18.51;57.90
73780;SHT30;62093;37.614;15.072;2024-03-23T14:40:47;18.51;58.01
73780;SHT30;62093;37.614;15.072;2024-03-23T14:43:13;18.50;58.16
73780;SHT30;62093;37.614;15.072;2024-03-23T14:46:22;18.50;58.34
73780;SHT30;62093;37.614;15.072;2024-03-23T14:48:48;18.50;58.48
73780;SHT30;62093;37.614;15.072;2024-03-23T14:51:14;18.50;58.40
73780;SHT30;62093;37.614;15.072;2024-03-23T14:53:44;18.48;58.53
73780;SHT30;62093;37.614;15.072;2024-03-23T14:56:11;18.47;58.33
73780;SHT30;62093;37.614;15.072;2024-03-23T14:58:39;18.47;58.55
73780;SHT30;62093;37.614;15.072;2024-03-23T15:01:06;18.47;58.62
73780;SHT30;62093;37.614;15.072;2024-03-23T15:03:39;18.45;58.63
73780;SHT30;62093;37.614;15.072;2024-03-23T15:06:06;18.45;58.70
73780;SHT30;62093;37.614;15.072;2024-03-23T15:08:32;18.43;58.67
73780;SHT30;62093;37.614;15.072;2024-03-23T15:11:01;18.44;58.83
73780;SHT30;62093;37.614;15.072;2024-03-23T15:13:38;18.40;58.81
73780;SHT30;62093;37.614;15.072;2024-03-23T15:16:06;18.38;58.70
73780;SHT30;62093;37.614;15.072;2024-03-23T15:18:32;18.40;58.72
73780;SHT30;62093;37.614;15.072;2024-03-23T15:21:00;18.40;58.74
73780;SHT30;62093;37.614;15.072;2024-03-23T15:23:31;18.37;58.58
73780;SHT30;62093;37.614;15.072;2024-03-23T15:25:58;18.36;58.76
73780;SHT30;62093;37.614;15.072;2024-03-23T15:28:25;18.36;59.06
73780;SHT30;62093;37.614;15.072;2024-03-23T15:31:10;18.30;58.99
73780;SHT30;62093;37.614;15.072;2024-03-23T15:33:36;18.33;58.99
73780;SHT30;62093;37.614;15.072;2024-03-23T15:36:03;18.30;59.19
73780;SHT30;62093;37.614;15.072;2024-03-23T15:38:30;18.29;59.18
73780;SHT30;62093;37.614;15.072;2024-03-23T15:40:57;18.24;59.30
73780;SHT30;62093;37.614;15.072;2024-03-23T15:43:23;18.24;59.40
73780;SHT30;62093;37.614;15.072;2024-03-23T15:45:56;18.24;59.40
73780;SHT30;62093;37.614;15.072;2024-03-23T15:48:23;18.23;59.14
73780;SHT30;62093;37.614;15.072;2024-03-23T15:50:56;18.20;59.33
73780;SHT30;62093;37.614;15.072;2024-03-23T15:53:24;18.18;59.38
73780;SHT30;62093;37.614;15.072;2024-03-23T15:56:01;18.16;59.34
73780;SHT30;62093;37.614;15.072;2024-03-23T15:58:28;18.14;59.26
73780;SHT30;62093;37.614;15.072;2024-03-23T16:01:05;18.14;59.24
73780;SHT30;62093;37.614;15.072;2024-03-23T16:03:32;18.13;59.34
73780;SHT30;62093;37.614;15.072;2024-03-23T16:06:06;18.10;59.22
73780;SHT30;62093;37.614;15.072;2024-03-23T16:08:35;18.12;59.36
73780;SHT30;62093;37.614;15.072;2024-03-23T16:11:06;18.12;59.34
73780;SHT30;62093;37.614;15.072;2024-03-23T16:13:33;18.07;59.41